Time;durP1;ratioP1;P1;durP2;ratioP2;P2;SDS_P1;SDS_P2;PMS_P1;PMS_P2;Temp;Humidity;BMP_temperature;BMP_pressure;BME280_temperature;BME280_humidity;BME280_pressure;Samples;Min_cycle;Max_cycle;Signal;HPM_P1;HPM_P2
2023/12/22 00:00:23;;;;;;;7.43;2.05;;;;;;;9.15;66.13;99560.91;4997277;28;20410;-46
2023/12/22 00:02:50;;;;;;;10.48;1.83;;;;;;;9.18;66.11;99560.88;5002325;28;20503;-53
2023/12/22 00:05:16;;;;;;;7.05;1.52;;;;;;;9.11;66.20;99563.47;4994921;28;20523;-46
2023/12/22 00:07:43;;;;;;;13.68;2.33;;;;;;;9.12;66.38;99559.19;4998791;28;20041;-46
2023/12/22 00:10:10;;;;;;;14.32;1.85;;;;;;;9.00;66.20;99563.53;5001168;28;20046;-53
2023/12/22 00:12:38;;;;;;;9.18;1.58;;;;;;;9.05;66.07;99570.41;5003095;28;20438;-47
2023/12/22 00:15:05;;;;;;;5.25;1.13;;;;;;;9.05;66.25;99573.00;5009336;28;20484;-49
2023/12/22 00:17:32;;;;;;;7.03;1.27;;;;;;;9.07;66.23;99566.06;4996782;28;20049;-50
2023/12/22 00:20:02;;;;;;;9.85;1.65;;;;;;;9.08;66.99;99565.19;5003353;28;20050;-47
2023/12/22 00:22:30;;;;;;;10.38;1.27;;;;;;;9.04;66.46;99561.78;5005964;28;20054;-45
2023/12/22 00:24:57;;;;;;;4.28;1.40;;;;;;;9.02;66.74;99554.91;5006557;28;20038;-48
2023/12/22 00:27:23;;;;;;;7.45;1.33;;;;;;;9.01;66.65;99554.03;5005460;28;20074;-44
2023/12/22 00:29:50;;;;;;;6.95;1.75;;;;;;;9.05;66.73;99542.84;5003415;28;20042;-49
2023/12/22 00:32:17;;;;;;;11.25;1.58;;;;;;;9.00;66.61;99548.03;5003845;28;20050;-47
2023/12/22 00:34:43;;;;;;;5.93;0.95;;;;;;;8.99;66.54;99560.97;5007227;28;20500;-47
2023/12/22 00:37:13;;;;;;;9.13;1.52;;;;;;;9.05;66.82;99555.75;4999331;28;20097;-43
2023/12/22 00:39:40;;;;;;;6.57;1.50;;;;;;;9.00;66.93;99571.28;5003687;28;20064;-42
2023/12/22 00:42:08;;;;;;;9.57;1.00;;;;;;;9.08;67.22;99560.03;4997484;28;20053;-47
2023/12/22 00:44:35;;;;;;;7.68;1.30;;;;;;;9.03;66.96;99567.84;5002976;28;20053;-44
2023/12/22 00:47:01;;;;;;;6.15;1.25;;;;;;;9.10;67.22;99561.78;5000133;28;20042;-50
2023/12/22 00:49:29;;;;;;;10.27;1.65;;;;;;;9.09;67.16;99570.38;5001096;28;20096;-50
2023/12/22 00:51:55;;;;;;;10.45;0.95;;;;;;;9.08;67.16;99560.91;5005964;28;20096;-44
2023/12/22 00:54:24;;;;;;;13.77;2.00;;;;;;;9.06;67.25;99557.50;5005852;28;20056;-47
2023/12/22 00:56:51;;;;;;;10.82;1.40;;;;;;;9.06;67.04;99551.44;5026561;28;20115;-49
2023/12/22 00:59:18;;;;;;;10.32;1.67;;;;;;;9.06;67.52;99546.28;5028034;28;20056;-52
2023/12/22 01:01:45;;;;;;;9.52;1.55;;;;;;;9.04;67.47;99553.16;5028438;28;20049;-50
2023/12/22 01:04:12;;;;;;;10.75;1.60;;;;;;;8.98;67.95;99557.50;5016445;28;20122;-49
2023/12/22 01:06:40;;;;;;;8.05;1.40;;;;;;;9.06;67.63;99559.19;5002980;28;20149;-54
2023/12/22 01:09:07;;;;;;;6.22;2.05;;;;;;;9.09;67.79;99554.88;5007523;28;20583;-52
2023/12/22 01:11:35;;;;;;;3.47;0.70;;;;;;;9.11;67.98;99560.03;5010084;28;20045;-47
2023/12/22 01:14:06;;;;;;;7.95;1.13;;;;;;;9.11;68.16;99558.31;5003769;28;20054;-47
2023/12/22 01:16:33;;;;;;;11.45;1.85;;;;;;;9.14;68.24;99554.84;5001213;28;20038;-42
2023/12/22 01:19:00;;;;;;;7.78;1.60;;;;;;;9.15;68.46;99553.13;5004618;28;20353;-43
2023/12/22 01:21:28;;;;;;;6.85;1.52;;;;;;;9.15;68.54;99556.56;5004880;28;20042;-41
2023/12/22 01:23:55;;;;;;;9.07;1.30;;;;;;;9.21;68.34;99561.72;5004295;28;20133;-48
2023/12/22 01:26:22;;;;;;;12.55;1.27;;;;;;;9.25;68.76;99560.81;5007156;28;20077;-52
2023/12/22 01:28:50;;;;;;;10.27;1.42;;;;;;;9.26;68.32;99556.53;5007999;28;20048;-46
2023/12/22 01:31:19;;;;;;;4.30;1.48;;;;;;;9.24;68.58;99556.53;5008442;28;20065;-50
2023/12/22 01:33:47;;;;;;;8.85;1.35;;;;;;;9.30;68.60;99552.19;5008039;28;20080;-44
2023/12/22 01:36:14;;;;;;;14.15;1.23;;;;;;;9.31;68.72;99551.31;5008256;28;20042;-45
2023/12/22 01:38:41;;;;;;;8.05;1.00;;;;;;;9.32;69.12;99546.13;5006841;28;20521;-46
2023/12/22 01:41:09;;;;;;;8.90;1.30;;;;;;;9.36;69.41;99554.75;5001929;28;20049;-44
2023/12/22 01:43:36;;;;;;;6.80;1.23;;;;;;;9.32;70.08;99558.22;5005850;28;20050;-49
2023/12/22 01:46:04;;;;;;;5.95;0.80;;;;;;;9.30;70.25;99559.94;5008146;28;20037;-51
2023/12/22 01:48:33;;;;;;;2.42;0.55;;;;;;;9.25;70.68;99563.41;5005788;28;20144;-53
2023/12/22 01:51:01;;;;;;;2.75;0.80;;;;;;;9.25;70.27;99558.25;5007013;28;20046;-45
2023/12/22 01:53:30;;;;;;;4.88;1.02;;;;;;;9.08;72.73;99554.88;5004856;28;20075;-41
2023/12/22 01:55:59;;;;;;;2.63;1.08;;;;;;;9.08;73.15;99545.41;5000568;28;20053;-42
2023/12/22 01:58:29;;;;;;;3.40;0.50;;;;;;;9.09;73.02;99548.88;5002672;28;20050;-45
2023/12/22 02:00:58;;;;;;;3.22;0.90;;;;;;;9.10;73.28;99548.00;5000034;28;20054;-48
2023/12/22 02:03:25;;;;;;;2.92;0.65;;;;;;;9.06;73.12;99546.28;4999903;28;20052;-45
2023/12/22 02:05:54;;;;;;;2.70;0.57;;;;;;;9.04;73.25;99548.88;5004825;28;20045;-45
2023/12/22 02:08:22;;;;;;;2.45;0.40;;;;;;;9.00;73.74;99553.22;5000077;28;20096;-45
2023/12/22 02:10:50;;;;;;;1.85;1.02;;;;;;;9.01;73.21;99546.28;4999796;28;20046;-45
2023/12/22 02:13:17;;;;;;;5.07;0.93;;;;;;;8.99;73.99;99548.88;5003188;28;20086;-45
2023/12/22 02:15:45;;;;;;;6.03;1.05;;;;;;;8.98;73.97;99549.75;5002307;28;20066;-50
2023/12/22 02:18:18;;;;;;;3.47;0.90;;;;;;;8.95;74.45;99539.44;4999243;28;20038;-44
2023/12/22 02:20:45;;;;;;;6.55;0.95;;;;;;;8.94;74.52;99542.88;5000792;28;20104;-45
2023/12/22 02:23:13;;;;;;;1.83;0.65;;;;;;;8.89;75.53;99529.16;5003715;28;20108;-49
2023/12/22 02:25:39;;;;;;;4.75;0.70;;;;;;;8.90;75.13;99525.69;5002500;28;20503;-47
2023/12/22 02:28:10;;;;;;;6.40;1.02;;;;;;;8.89;74.98;99518.81;5003160;28;20514;-45
2023/12/22 02:31:03;;;;;;;4.07;0.65;;;;;;;8.83;76.24;99513.66;5002777;28;20049;-49
2023/12/22 02:33:31;;;;;;;4.47;0.85;;;;;;;8.87;75.48;99528.28;4997917;28;20049;-49
2023/12/22 02:36:03;;;;;;;4.43;0.80;;;;;;;8.86;75.50;99524.81;4999055;28;20046;-45
2023/12/22 02:38:31;;;;;;;3.63;0.82;;;;;;;8.86;76.18;99513.66;5002524;28;20050;-51
2023/12/22 02:40:59;;;;;;;1.40;0.38;;;;;;;8.85;76.30;99507.63;5005404;28;20042;-46
2023/12/22 02:43:27;;;;;;;2.10;0.80;;;;;;;8.83;77.31;99509.38;5004319;28;20550;-47
2023/12/22 02:45:53;;;;;;;2.38;1.40;;;;;;;8.84;76.74;99512.78;5001060;28;20050;-47
2023/12/22 02:48:20;;;;;;;2.85;0.80;;;;;;;8.83;77.03;99524.00;5007138;28;20552;-44
2023/12/22 02:50:47;;;;;;;0.95;0.50;;;;;;;8.88;76.55;99519.66;5006698;28;20042;-48
2023/12/22 02:53:13;;;;;;;0.65;0.32;;;;;;;8.83;77.48;99508.50;5007366;28;20072;-44
2023/12/22 02:55:40;;;;;;;1.52;0.70;;;;;;;8.88;77.28;99511.91;5000530;28;20088;-49
2023/12/22 02:58:07;;;;;;;1.58;0.30;;;;;;;8.86;77.22;99506.75;5005059;28;20058;-47
2023/12/22 03:00:33;;;;;;;1.17;0.40;;;;;;;8.88;77.67;99499.00;5000196;28;20054;-48
2023/12/22 03:03:00;;;;;;;1.67;0.98;;;;;;;8.89;77.40;99503.31;4997288;28;20080;-45
2023/12/22 03:05:27;;;;;;;0.88;0.63;;;;;;;8.90;77.56;99489.53;5005909;28;20090;-50
2023/12/22 03:07:53;;;;;;;1.08;0.80;;;;;;;8.93;77.16;99486.06;4999933;28;20133;-49
2023/12/22 03:10:20;;;;;;;1.70;0.40;;;;;;;8.94;77.45;99480.91;5003161;28;20670;-51
2023/12/22 03:12:47;;;;;;;2.35;0.70;;;;;;;8.94;77.10;99486.06;5001772;28;20053;-46
2023/12/22 03:15:14;;;;;;;2.55;0.22;;;;;;;8.94;77.82;99469.69;5001597;28;20111;-49
2023/12/22 03:17:41;;;;;;;0.60;0.50;;;;;;;8.93;78.17;99474.03;5004679;28;20057;-48
2023/12/22 03:20:08;;;;;;;0.45;0.28;;;;;;;8.96;78.03;99475.72;5004519;28;20136;-45
2023/12/22 03:22:34;;;;;;;1.13;0.52;;;;;;;8.95;78.82;99477.44;4999088;28;20056;-40
2023/12/22 03:25:01;;;;;;;1.20;0.65;;;;;;;8.93;78.91;99463.69;5003155;28;20049;-46
2023/12/22 03:27:27;;;;;;;0.82;0.60;;;;;;;8.87;80.24;99479.22;5002143;28;20049;-46
2023/12/22 03:29:54;;;;;;;1.20;0.43;;;;;;;8.93;80.17;99457.66;5005077;28;20042;-48
2023/12/22 03:32:21;;;;;;;0.77;0.52;;;;;;;8.90;80.23;99453.38;5005907;28;20056;-44
2023/12/22 03:34:48;;;;;;;1.65;0.77;;;;;;;8.94;80.16;99464.53;5005613;28;20127;-47
2023/12/22 03:37:14;;;;;;;0.85;0.52;;;;;;;8.91;81.06;99470.56;5004100;28;20121;-44
2023/12/22 03:39:41;;;;;;;0.65;0.43;;;;;;;8.93;81.03;99468.00;5000193;28;20054;-47
2023/12/22 03:42:08;;;;;;;1.35;0.40;;;;;;;8.95;80.57;99472.28;5002866;28;20050;-45
2023/12/22 03:44:34;;;;;;;1.20;0.57;;;;;;;9.03;79.82;99458.47;5003966;28;20046;-50
2023/12/22 03:47:01;;;;;;;0.82;0.75;;;;;;;9.04;80.62;99460.16;4998359;28;20045;-50
2023/12/22 03:49:28;;;;;;;4.07;0.77;;;;;;;9.06;79.90;99468.78;5006270;28;20046;-49
2023/12/22 03:51:54;;;;;;;1.00;0.60;;;;;;;9.09;80.26;99464.44;5002640;28;20058;-47
2023/12/22 03:54:21;;;;;;;0.73;0.40;;;;;;;9.11;79.69;99473.06;5003405;28;20056;-48
2023/12/22 03:56:48;;;;;;;1.63;0.70;;;;;;;9.11;80.22;99467.03;4998930;28;20053;-45
2023/12/22 03:59:14;;;;;;;0.73;0.50;;;;;;;9.10;80.58;99478.22;4997815;28;20050;-49
2023/12/22 04:01:42;;;;;;;3.38;1.17;;;;;;;9.13;79.94;99466.13;5002647;28;20052;-47
2023/12/22 04:04:08;;;;;;;1.52;0.68;;;;;;;9.18;79.87;99473.88;5003061;28;20060;-45
2023/12/22 04:06:40;;;;;;;0.90;0.70;;;;;;;9.18;80.17;99455.78;5005111;28;20050;-43
2023/12/22 04:09:06;;;;;;;2.67;1.08;;;;;;;9.19;80.20;99460.06;4999958;28;20061;-46
2023/12/22 04:11:34;;;;;;;1.23;0.77;;;;;;;9.21;80.13;99458.34;5002770;28;20053;-50
2023/12/22 04:14:05;;;;;;;0.80;0.40;;;;;;;9.18;80.54;99453.19;4999178;28;20073;-43
2023/12/22 04:16:32;;;;;;;1.50;0.75;;;;;;;9.23;80.12;99446.25;5000350;28;20435;-48
2023/12/22 04:18:59;;;;;;;1.60;0.68;;;;;;;9.23;80.55;99446.25;5003975;28;20054;-48
2023/12/22 04:21:26;;;;;;;1.40;0.50;;;;;;;9.26;80.06;99438.50;5005134;28;20045;-50
2023/12/22 04:23:53;;;;;;;2.50;0.55;;;;;;;9.24;80.59;99437.66;5005918;28;20056;-46
2023/12/22 04:26:19;;;;;;;0.85;0.60;;;;;;;9.29;80.09;99423.84;5005352;28;20045;-51
2023/12/22 04:28:46;;;;;;;1.65;0.52;;;;;;;9.28;80.12;99427.31;5004599;28;20046;-44
2023/12/22 04:31:12;;;;;;;0.63;0.45;;;;;;;9.25;80.37;99412.66;5002323;28;20077;-50
2023/12/22 04:33:40;;;;;;;2.15;0.40;;;;;;;9.22;81.59;99418.72;5005942;28;20046;-45
2023/12/22 04:36:07;;;;;;;0.30;0.30;;;;;;;9.25;80.74;99418.69;5004754;28;20117;-43
2023/12/22 04:38:35;;;;;;;1.17;0.30;;;;;;;9.28;80.85;99422.16;5009310;28;20549;-51
2023/12/22 04:41:02;;;;;;;1.45;0.60;;;;;;;9.32;80.52;99431.59;5004348;28;20045;-45
2023/12/22 04:43:31;;;;;;;1.58;0.50;;;;;;;9.32;80.38;99424.69;5003573;28;20055;-44
2023/12/22 04:45:57;;;;;;;0.30;0.30;;;;;;;9.34;80.07;99432.41;5000865;28;20045;-45
2023/12/22 04:48:24;;;;;;;1.20;0.30;;;;;;;9.42;80.63;99440.13;5002151;28;20062;-45
2023/12/22 04:50:51;;;;;;;3.03;0.80;;;;;;;9.43;80.17;99447.88;5006643;28;20155;-46
2023/12/22 04:53:18;;;;;;;1.58;0.77;;;;;;;9.48;79.82;99443.50;5003413;28;20515;-43
2023/12/22 04:55:44;;;;;;;0.60;0.60;;;;;;;9.49;80.51;99450.41;4997592;28;20057;-46
2023/12/22 04:58:11;;;;;;;0.70;0.60;;;;;;;9.46;80.91;99462.50;5001093;28;20057;-45
2023/12/22 05:00:38;;;;;;;0.68;0.68;;;;;;;9.49;80.71;99447.81;5000279;28;20113;-43
2023/12/22 05:03:05;;;;;;;0.95;0.40;;;;;;;9.49;80.70;99452.97;5002027;28;20046;-48
2023/12/22 05:05:32;;;;;;;1.38;0.70;;;;;;;9.52;80.25;99444.34;5004326;28;20049;-46
2023/12/22 05:07:59;;;;;;;0.45;0.45;;;;;;;9.47;80.65;99448.69;5003166;28;20045;-49
2023/12/22 05:10:27;;;;;;;0.73;0.20;;;;;;;9.54;80.53;99444.31;5005038;28;20051;-41
2023/12/22 05:12:54;;;;;;;0.40;0.40;;;;;;;9.54;80.60;99441.75;4999601;28;20130;-52
2023/12/22 05:15:20;;;;;;;1.20;0.50;;;;;;;9.52;80.57;99444.34;5000776;28;20729;-47
2023/12/22 05:17:47;;;;;;;0.68;0.20;;;;;;;9.49;81.55;99437.47;5002934;28;20038;-45
2023/12/22 05:20:15;;;;;;;1.58;0.30;;;;;;;9.52;80.83;99437.44;5006244;28;20050;-47
2023/12/22 05:22:42;;;;;;;0.35;0.35;;;;;;;9.55;81.02;99438.31;5003870;28;20057;-44
2023/12/22 05:25:10;;;;;;;2.17;0.75;;;;;;;9.57;80.59;99423.63;5005773;28;20054;-43
2023/12/22 05:27:36;;;;;;;1.13;0.88;;;;;;;9.61;80.76;99435.66;5001094;28;20046;-44
2023/12/22 05:30:05;;;;;;;0.68;0.32;;;;;;;9.65;80.34;99437.34;5008431;28;20056;-50
2023/12/22 05:32:31;;;;;;;1.05;1.00;;;;;;;9.68;80.17;99441.63;5003576;28;20400;-47
2023/12/22 05:34:58;;;;;;;0.82;0.50;;;;;;;9.71;79.90;99436.44;5005734;28;20141;-49
2023/12/22 05:37:26;;;;;;;2.25;0.30;;;;;;;9.69;80.11;99428.69;5004128;28;20046;-48
2023/12/22 05:39:52;;;;;;;0.98;0.63;;;;;;;9.64;79.91;99409.78;5001343;28;20050;-45
2023/12/22 05:42:19;;;;;;;0.85;0.50;;;;;;;9.74;79.83;99432.09;5010344;28;20057;-51
2023/12/22 05:44:49;;;;;;;1.10;1.10;;;;;;;9.72;79.85;99418.31;4999509;28;20046;-51
2023/12/22 05:47:17;;;;;;;0.43;0.43;;;;;;;9.73;80.24;99414.84;4999615;28;20046;-47
2023/12/22 05:49:44;;;;;;;0.70;0.70;;;;;;;9.73;79.58;99422.59;5007086;28;20128;-44
2023/12/22 05:52:12;;;;;;;1.48;0.45;;;;;;;9.74;79.39;99405.38;5007615;28;20100;-49
2023/12/22 05:54:39;;;;;;;0.60;0.60;;;;;;;9.71;80.04;99411.44;5002425;28;20444;-43
2023/12/22 05:57:06;;;;;;;0.65;0.40;;;;;;;9.72;79.61;99413.13;5007259;28;20046;-51
2023/12/22 05:59:34;;;;;;;0.40;0.40;;;;;;;9.71;79.65;99416.59;5027472;28;20483;-47
2023/12/22 06:02:02;;;;;;;0.82;0.82;;;;;;;9.71;79.90;99415.75;5009867;28;20045;-47
2023/12/22 06:04:29;;;;;;;0.82;0.40;;;;;;;9.70;79.86;99422.66;5006966;28;20136;-46
2023/12/22 06:06:57;;;;;;;0.80;0.50;;;;;;;9.70;79.51;99440.75;5003913;28;20077;-50
2023/12/22 06:09:23;;;;;;;0.45;0.45;;;;;;;9.73;79.76;99435.53;5004073;28;20053;-52
2023/12/22 06:11:51;;;;;;;0.40;0.20;;;;;;;9.73;79.40;99425.19;5003570;28;20054;-44
2023/12/22 06:14:19;;;;;;;2.63;0.40;;;;;;;9.68;79.97;99429.56;5003675;28;20104;-48
2023/12/22 06:16:46;;;;;;;0.73;0.73;;;;;;;9.68;79.54;99426.97;4997992;28;20065;-42
2023/12/22 06:19:13;;;;;;;1.15;0.20;;;;;;;9.62;80.16;99427.00;5008376;28;20073;-44
2023/12/22 06:21:40;;;;;;;0.40;0.40;;;;;;;9.59;79.98;99438.25;4993891;28;20052;-45
2023/12/22 06:24:11;;;;;;;0.47;0.30;;;;;;;9.55;79.93;99435.72;5005112;28;20048;-47
2023/12/22 06:26:37;;;;;;;0.60;0.47;;;;;;;9.56;79.99;99422.75;4998280;28;20534;-49
2023/12/22 06:29:04;;;;;;;0.35;0.35;;;;;;;9.59;79.92;99432.25;4996497;28;20056;-46
2023/12/22 06:31:31;;;;;;;0.40;0.40;;;;;;;9.56;79.94;99432.25;4999314;28;20172;-49
2023/12/22 06:34:02;;;;;;;0.60;0.60;;;;;;;9.54;80.33;99436.56;4998905;28;20049;-45
2023/12/22 06:36:30;;;;;;;0.43;0.40;;;;;;;9.63;80.23;99441.69;4998447;28;20054;-43
2023/12/22 06:38:57;;;;;;;1.02;0.45;;;;;;;9.60;80.39;99439.13;5001618;28;20127;-44
2023/12/22 06:41:26;;;;;;;0.57;0.57;;;;;;;9.55;80.28;99440.91;4999254;28;20050;-48
2023/12/22 06:43:55;;;;;;;1.90;0.50;;;;;;;9.59;80.41;99452.94;4998240;28;20088;-46
2023/12/22 06:46:25;;;;;;;1.20;0.70;;;;;;;9.57;80.16;99444.31;4997415;28;20124;-47
2023/12/22 06:48:53;;;;;;;2.05;0.73;;;;;;;9.63;80.14;99459.78;4997470;28;20057;-48
2023/12/22 06:51:22;;;;;;;0.25;0.25;;;;;;;9.56;79.96;99458.13;4998511;28;20411;-51
2023/12/22 06:53:50;;;;;;;1.02;0.30;;;;;;;9.55;80.58;99461.56;4995318;28;20573;-46
2023/12/22 06:56:20;;;;;;;0.32;0.32;;;;;;;9.52;80.79;99442.63;4997772;28;20049;-48
2023/12/22 06:58:48;;;;;;;0.73;0.73;;;;;;;9.52;80.63;99447.78;4997331;28;20046;-44
2023/12/22 07:03:57;;;;;;;2.03;1.02;;;;;;;9.71;80.02;99432.13;5046932;28;20427;-48
2023/12/22 07:06:27;;;;;;;1.55;1.52;;;;;;;9.56;80.30;99437.44;5036739;28;20056;-41
2023/12/22 07:11:34;;;;;;;0.90;0.43;;;;;;;9.55;80.76;99440.91;5022896;27;20402;-48
2023/12/22 07:14:04;;;;;;;0.88;0.88;;;;;;;9.52;80.65;99445.19;5019321;28;20045;-47
2023/12/22 07:16:31;;;;;;;0.75;0.47;;;;;;;9.57;80.47;99446.91;5017271;28;20057;-48
2023/12/22 07:18:58;;;;;;;0.68;0.63;;;;;;;9.59;80.58;99447.75;5011786;28;20050;-49
2023/12/22 07:21:26;;;;;;;0.70;0.68;;;;;;;9.63;80.13;99459.78;5022701;28;20140;-47
2023/12/22 07:23:52;;;;;;;1.10;0.70;;;;;;;9.64;79.96;99451.16;5025220;28;20053;-49
2023/12/22 07:26:21;;;;;;;2.58;1.13;;;;;;;9.63;79.85;99457.19;5036722;28;20052;-48
2023/12/22 07:28:48;;;;;;;0.77;0.73;;;;;;;9.61;80.19;99480.47;5045745;28;20049;-50
2023/12/22 07:31:19;;;;;;;1.88;0.68;;;;;;;9.66;80.66;99480.41;5045283;28;20114;-52
2023/12/22 07:33:45;;;;;;;2.25;1.30;;;;;;;9.69;80.27;99475.22;5039794;28;21121;-44
2023/12/22 07:36:15;;;;;;;1.70;0.63;;;;;;;9.55;80.76;99466.75;5039018;28;20057;-48
2023/12/22 07:38:42;;;;;;;1.05;1.05;;;;;;;9.65;80.59;99473.53;5042455;28;20053;-49
2023/12/22 07:41:09;;;;;;;0.43;0.35;;;;;;;9.60;80.83;99476.16;5042357;28;20127;-46
2023/12/22 07:43:39;;;;;;;0.82;0.80;;;;;;;9.65;80.13;99470.94;5044552;28;20055;-47
2023/12/22 07:46:09;;;;;;;1.27;0.68;;;;;;;9.59;80.98;99473.59;5044975;28;20045;-48
2023/12/22 07:48:36;;;;;;;3.42;1.25;;;;;;;9.66;80.28;99475.25;5044849;28;20168;-44
2023/12/22 07:51:03;;;;;;;0.28;0.28;;;;;;;9.59;80.41;99483.94;5040776;28;20071;-48
2023/12/22 07:53:30;;;;;;;4.70;1.05;;;;;;;9.65;80.93;99481.28;5040456;28;21728;-46
2023/12/22 07:55:59;;;;;;;1.55;0.40;;;;;;;9.61;80.21;99477.88;5034650;28;20310;-43
2023/12/22 07:58:25;;;;;;;1.65;0.20;;;;;;;9.63;79.94;99470.13;5032491;28;20072;-51
2023/12/22 08:00:52;;;;;;;1.92;0.82;;;;;;;9.64;80.44;99464.06;5029130;28;20045;-49
2023/12/22 08:03:19;;;;;;;0.57;0.40;;;;;;;9.63;80.33;99485.63;5035451;28;20053;-50
2023/12/22 08:05:46;;;;;;;1.35;0.30;;;;;;;9.66;80.04;99485.59;5032613;28;20586;-47
2023/12/22 08:08:13;;;;;;;1.23;0.65;;;;;;;9.62;79.54;99483.91;5039173;28;20045;-47
2023/12/22 08:10:40;;;;;;;1.42;0.55;;;;;;;9.55;79.32;99482.25;5027480;28;20189;-50
2023/12/22 08:13:06;;;;;;;1.30;0.60;;;;;;;9.59;79.90;99489.97;5033642;28;20100;-47
2023/12/22 08:15:33;;;;;;;1.20;0.60;;;;;;;9.63;79.40;99491.66;5025190;28;20049;-44
2023/12/22 08:18:04;;;;;;;2.15;0.80;;;;;;;9.59;80.15;99483.94;5031355;28;20697;-52
2023/12/22 08:20:31;;;;;;;0.98;0.55;;;;;;;9.65;79.39;99483.88;5029216;28;20049;-49
2023/12/22 08:23:03;;;;;;;0.45;0.32;;;;;;;9.56;80.29;99489.13;5010865;28;20530;-46
2023/12/22 08:25:36;;;;;;;1.45;0.75;;;;;;;9.56;80.47;99509.81;5019351;28;20082;-49
2023/12/22 08:28:03;;;;;;;0.50;0.40;;;;;;;9.61;80.31;99518.38;5015449;28;20054;-49
2023/12/22 08:30:30;;;;;;;0.60;0.47;;;;;;;9.48;81.10;99518.47;5014444;28;20050;-53
2023/12/22 08:32:56;;;;;;;1.70;0.43;;;;;;;9.59;80.96;99522.72;5017768;28;20049;-50
2023/12/22 08:35:25;;;;;;;3.65;0.73;;;;;;;9.62;80.60;99520.09;5017864;28;20045;-45
2023/12/22 08:37:51;;;;;;;2.22;0.90;;;;;;;9.54;80.83;99511.53;5018917;28;20048;-52
2023/12/22 08:40:25;;;;;;;3.08;0.65;;;;;;;9.52;80.60;99509.84;5016706;28;20044;-45
2023/12/22 08:42:59;;;;;;;1.92;0.50;;;;;;;9.51;80.83;99523.63;5019909;28;20098;-44
2023/12/22 08:45:28;;;;;;;2.00;0.57;;;;;;;9.46;80.50;99509.88;5016264;28;20086;-48
2023/12/22 08:47:57;;;;;;;1.70;0.90;;;;;;;9.51;80.70;99517.59;5014154;28;20049;-45
2023/12/22 08:50:24;;;;;;;1.70;1.60;;;;;;;9.42;80.63;99518.50;5014909;28;20060;-45
2023/12/22 08:52:51;;;;;;;1.58;0.75;;;;;;;9.49;81.24;99530.53;5020152;28;20057;-49
2023/12/22 08:55:18;;;;;;;1.00;0.70;;;;;;;9.48;80.61;99523.66;5023811;28;20069;-45
2023/12/22 08:57:45;;;;;;;2.20;0.50;;;;;;;9.49;80.90;99522.78;5024099;28;20140;-47
2023/12/22 09:00:22;;;;;;;0.90;0.90;;;;;;;9.43;81.01;99520.25;5021591;28;20066;-46
2023/12/22 09:02:50;;;;;;;1.88;1.00;;;;;;;9.55;80.21;99513.28;5021382;28;20053;-51
2023/12/22 09:05:19;;;;;;;0.90;0.63;;;;;;;9.55;80.64;99528.78;5027544;28;20558;-45
2023/12/22 09:07:46;;;;;;;2.75;0.60;;;;;;;9.60;80.60;99527.03;5024772;28;20052;-47
2023/12/22 09:10:13;;;;;;;0.65;0.60;;;;;;;9.58;79.90;99523.56;5020945;28;21399;-46
2023/12/22 09:12:40;;;;;;;1.02;0.52;;;;;;;9.56;80.29;99538.25;5024791;28;20352;-42
2023/12/22 09:15:07;;;;;;;1.02;0.55;;;;;;;9.56;80.55;99540.84;5025684;28;20144;-48
2023/12/22 09:17:35;;;;;;;0.80;0.70;;;;;;;9.61;80.32;99544.25;5017417;28;20050;-49
2023/12/22 09:20:02;;;;;;;2.33;0.55;;;;;;;9.72;80.03;99557.09;5015819;28;20046;-45
2023/12/22 09:22:29;;;;;;;0.98;0.55;;;;;;;9.74;80.01;99539.84;5024322;28;20046;-46
2023/12/22 09:24:56;;;;;;;3.63;0.82;;;;;;;9.73;79.30;99540.72;5024960;28;20045;-47
2023/12/22 09:27:22;;;;;;;1.30;0.88;;;;;;;9.72;79.33;99542.44;5026569;28;20118;-47
2023/12/22 09:29:50;;;;;;;3.47;0.40;;;;;;;9.76;79.70;99528.63;5020599;28;20056;-47
2023/12/22 09:32:17;;;;;;;1.65;0.65;;;;;;;9.80;78.87;99518.25;5022312;28;20057;-49
2023/12/22 09:34:43;;;;;;;1.63;0.93;;;;;;;9.75;78.69;99526.91;5023234;28;20054;-48
2023/12/22 09:37:10;;;;;;;1.75;0.52;;;;;;;9.85;78.71;99534.59;5026125;28;20545;-44
2023/12/22 09:39:38;;;;;;;1.10;1.00;;;;;;;9.77;79.08;99543.25;5024505;28;20449;-47
2023/12/22 09:42:05;;;;;;;0.55;0.55;;;;;;;9.86;78.49;99544.09;5021012;28;20038;-45
2023/12/22 09:44:33;;;;;;;2.17;0.65;;;;;;;9.87;78.97;99561.31;5017445;28;20131;-48
2023/12/22 09:47:03;;;;;;;1.60;0.40;;;;;;;9.83;79.02;99541.50;5023628;28;20080;-45
2023/12/22 09:49:31;;;;;;;;;;;;;;;9.79;78.82;99552.75;5025234;28;20529;-47
2023/12/22 09:51:59;;;;;;;1.52;0.85;;;;;;;9.90;78.01;99566.47;5023455;28;19929;-46
2023/12/22 09:54:26;;;;;;;1.48;0.73;;;;;;;9.93;78.69;99574.19;5022212;28;20458;-45
2023/12/22 09:56:54;;;;;;;2.97;1.55;;;;;;;9.92;77.92;99569.03;5019939;28;20061;-47
2023/12/22 09:59:22;;;;;;;3.72;1.83;;;;;;;9.97;78.10;99581.03;5006783;28;20049;-45
2023/12/22 10:01:51;;;;;;;2.30;1.15;;;;;;;10.01;78.49;99574.13;5003622;28;20058;-50
2023/12/22 10:04:20;;;;;;;3.50;0.90;;;;;;;10.03;77.91;99570.66;5007291;28;20053;-43
2023/12/22 10:06:49;;;;;;;3.65;1.38;;;;;;;10.08;78.10;99568.03;5006794;28;20058;-48
2023/12/22 10:09:17;;;;;;;1.67;0.55;;;;;;;10.06;78.63;99571.50;5023522;28;20553;-44
2023/12/22 10:11:51;;;;;;;1.10;0.63;;;;;;;10.05;78.00;99581.00;5025053;28;20415;-45
2023/12/22 10:14:24;;;;;;;3.70;1.15;;;;;;;10.12;78.32;99586.97;5022733;28;20069;-52
2023/12/22 10:16:52;;;;;;;2.17;0.52;;;;;;;10.10;77.99;99583.56;5019022;28;20137;-46
2023/12/22 10:19:20;;;;;;;2.05;0.93;;;;;;;10.09;77.44;99574.06;5024207;28;21606;-44
2023/12/22 10:21:49;;;;;;;1.70;0.85;;;;;;;10.10;78.23;99573.22;5024146;28;20049;-46
2023/12/22 10:24:46;;;;;;;8.40;0.75;;;;;;;10.08;77.54;99586.16;5023461;28;20061;-44
2023/12/22 10:27:14;;;;;;;1.48;0.73;;;;;;;10.11;77.15;99569.75;5032252;28;20058;-50
2023/12/22 10:29:41;;;;;;;1.90;0.65;;;;;;;10.11;77.98;99578.38;5024198;28;20057;-48
2023/12/22 10:32:08;;;;;;;1.95;1.35;;;;;;;10.07;77.70;99581.00;5023201;28;20049;-47
2023/12/22 10:34:35;;;;;;;2.22;2.05;;;;;;;10.02;77.83;99574.13;5023454;28;20124;-46
2023/12/22 10:37:03;;;;;;;2.58;0.95;;;;;;;10.10;76.99;99570.63;5025218;28;20141;-45
2023/12/22 10:39:31;;;;;;;0.90;0.90;;;;;;;10.08;77.36;99570.63;5025240;28;20049;-52
2023/12/22 10:41:59;;;;;;;1.73;0.95;;;;;;;10.12;77.35;99577.50;5009331;28;20053;-45
2023/12/22 10:44:27;;;;;;;1.35;1.25;;;;;;;10.14;77.50;99580.06;5028050;28;20132;-47
2023/12/22 10:46:55;;;;;;;4.07;1.23;;;;;;;10.16;77.49;99580.91;5023869;28;20049;-45
2023/12/22 10:49:23;;;;;;;1.60;1.02;;;;;;;10.06;77.66;99584.44;5023284;28;20045;-46
2023/12/22 10:51:50;;;;;;;1.10;0.90;;;;;;;10.14;77.81;99590.41;5024783;28;20080;-47
2023/12/22 10:54:18;;;;;;;2.90;0.73;;;;;;;10.09;77.52;99603.38;5025984;28;20042;-47
2023/12/22 10:56:44;;;;;;;2.63;0.90;;;;;;;10.09;77.36;99593.03;5026430;28;20053;-43
2023/12/22 10:59:11;;;;;;;1.58;1.02;;;;;;;10.00;77.69;99587.94;5021282;28;20057;-47
2023/12/22 11:01:38;;;;;;;2.13;0.88;;;;;;;10.13;77.46;99593.84;5025604;28;20132;-50
2023/12/22 11:04:09;;;;;;;1.10;0.93;;;;;;;10.19;77.63;99588.66;5055148;28;20045;-40
2023/12/22 11:06:38;;;;;;;1.85;0.82;;;;;;;10.13;77.47;99578.34;5023301;28;20139;-50
2023/12/22 11:09:08;;;;;;;0.73;0.50;;;;;;;10.17;77.66;99574.88;5022505;28;20061;-46
2023/12/22 11:11:38;;;;;;;1.95;0.85;;;;;;;10.27;77.01;99581.66;5023512;28;20041;-49
2023/12/22 11:14:06;;;;;;;1.13;0.70;;;;;;;10.24;76.63;99568.75;5021987;28;20202;-43
2023/12/22 11:16:35;;;;;;;0.30;0.22;;;;;;;10.27;76.96;99584.25;5018994;28;20045;-47
2023/12/22 11:19:03;;;;;;;0.82;0.82;;;;;;;10.34;76.23;99586.78;5021753;28;20807;-41
2023/12/22 11:21:30;;;;;;;1.83;0.40;;;;;;;10.36;76.57;99591.09;5022536;28;21212;-48
2023/12/22 11:23:57;;;;;;;1.63;0.55;;;;;;;10.22;76.93;99572.22;5020337;28;20056;-45
2023/12/22 11:26:25;;;;;;;0.88;0.80;;;;;;;10.24;77.07;99586.88;5014331;28;20156;-52
2023/12/22 11:28:52;;;;;;;0.88;0.88;;;;;;;10.19;76.71;99591.22;5023175;28;20052;-42
2023/12/22 11:31:27;;;;;;;0.57;0.20;;;;;;;10.29;76.07;99605.81;5023423;28;20111;-48
2023/12/22 11:33:55;;;;;;;1.00;0.82;;;;;;;10.29;75.67;99600.63;5020422;28;20105;-44
2023/12/22 11:36:36;;;;;;;0.75;0.73;;;;;;;10.34;75.72;99599.75;5024730;28;20045;-49
2023/12/22 11:39:04;;;;;;;1.08;0.80;;;;;;;10.20;75.57;99605.03;5020162;28;20685;-44
2023/12/22 11:41:34;;;;;;;2.88;0.60;;;;;;;10.37;75.94;99602.31;5019084;28;20048;-49
2023/12/22 11:44:03;;;;;;;1.75;0.73;;;;;;;10.35;75.56;99602.31;5020757;28;20136;-49
2023/12/22 11:46:30;;;;;;;2.15;0.68;;;;;;;10.32;75.87;99588.53;5022572;28;20148;-49
2023/12/22 11:48:57;;;;;;;0.60;0.60;;;;;;;10.32;74.96;99588.53;5017451;28;20490;-50